createdAt,value
2016-02-14T15:47:54.694Z,54.41
2016-02-14T15:48:54.555Z,54.38
2016-02-14T15:49:54.558Z,53.9
2016-02-14T15:50:54.561Z,53.9
2016-02-14T15:51:54.517Z,53.9
2016-02-14T15:52:54.519Z,54.09
2016-02-14T15:53:54.789Z,54.09
2016-02-14T15:54:54.525Z,54.02
2016-02-14T15:55:54.496Z,53.74
2016-02-14T15:56:54.468Z,53.9
2016-02-14T15:57:54.595Z,53.9
2016-02-14T15:58:54.443Z,53.74
2016-02-14T15:59:54.429Z,53.35
2016-02-14T16:00:54.432Z,53.7
2016-02-14T16:01:54.419Z,53.35
2016-02-14T16:02:54.562Z,53.61
2016-02-14T16:03:54.409Z,53.42
2016-02-14T16:04:54.396Z,53.52
2016-02-14T16:05:54.384Z,53.32
2016-02-14T16:06:54.494Z,53.52
2016-02-14T16:07:54.357Z,53.06
2016-02-14T16:08:54.313Z,53.16
2016-02-14T16:09:54.517Z,53.25
2016-02-14T16:10:54.630Z,53.16
2016-02-14T16:11:54.603Z,53.16
2016-02-14T16:12:54.256Z,53.16
2016-02-14T16:13:54.223Z,52.87
2016-02-14T16:14:54.252Z,52.68
2016-02-14T16:15:54.202Z,52.97
2016-02-14T16:16:54.480Z,53.16
2016-02-14T16:17:54.997Z,52.77
2016-02-14T16:18:54.186Z,53.16
2016-02-14T16:19:54.154Z,53.06
2016-02-14T16:20:54.562Z,53.06
2016-02-14T16:21:54.141Z,53.06
2016-02-14T16:22:54.127Z,53.06
2016-02-14T16:23:54.176Z,53.16
2016-02-14T16:24:54.162Z,52.77
2016-02-14T16:25:54.117Z,52.97
2016-02-14T16:26:54.103Z,53.25
2016-02-14T16:27:54.107Z,53.25
2016-02-14T16:28:54.296Z,52.77
2016-02-14T16:29:54.081Z,53.06
2016-02-14T16:30:54.084Z,52.97
2016-02-14T16:31:54.070Z,52.8
2016-02-14T16:32:54.370Z,52.87
2016-02-14T16:33:54.216Z,52.68
2016-02-14T16:34:54.047Z,52.68
2016-02-14T16:35:54.034Z,52.77
2016-02-14T16:36:54.037Z,52.58
2016-02-14T16:37:54.039Z,52.58
2016-02-14T16:38:54.026Z,52.48
2016-02-14T16:39:55.436Z,52.68
2016-02-14T16:40:54.016Z,52.77
2016-02-14T16:41:54.159Z,52.87
2016-02-14T16:42:53.991Z,52.58
2016-02-14T16:43:55.197Z,52.77
2016-02-14T16:44:53.980Z,52.58
2016-02-14T16:45:53.966Z,52.39
2016-02-14T16:46:53.969Z,52.29
2016-02-14T16:47:54.644Z,52.39
2016-02-14T16:48:54.021Z,52.48
2016-02-14T16:49:53.994Z,52.68
2016-02-14T16:50:54.262Z,52.48
2016-02-14T16:51:54.061Z,52.77
2016-02-14T16:52:54.877Z,52.77
2016-02-14T16:53:54.083Z,52.77
2016-02-14T16:54:54.335Z,52.77
2016-02-14T16:55:54.025Z,52.68
2016-02-14T16:56:54.013Z,52.77
2016-02-14T16:57:53.890Z,52.77
2016-02-14T16:58:53.893Z,52.77
2016-02-14T16:59:53.879Z,52.77
2016-02-14T17:00:53.882Z,52.58
2016-02-14T17:01:54.198Z,52.68
2016-02-14T17:02:53.873Z,52.77
2016-02-14T17:03:53.859Z,52.68
2016-02-14T17:04:53.862Z,52.87
2016-02-14T17:05:53.849Z,52.97
2016-02-14T17:06:53.836Z,52.87
2016-02-14T17:07:53.839Z,52.68
2016-02-14T17:08:53.826Z,52.87
2016-02-14T17:09:53.828Z,52.8
2016-02-14T17:10:53.816Z,52.7
2016-02-14T17:11:53.849Z,52.77
2016-02-14T17:12:53.821Z,52.58
2016-02-14T17:13:53.792Z,52.39
2016-02-14T17:14:53.780Z,52.58
2016-02-14T17:15:53.782Z,52.48
2016-02-14T17:16:53.847Z,52.58
2016-02-14T17:17:53.771Z,52.58
2016-02-14T17:18:53.759Z,53.06
2016-02-14T17:19:53.761Z,52.87
2016-02-14T17:20:53.749Z,52.68
2016-02-14T17:21:53.752Z,52.32
2016-02-14T17:22:53.957Z,52.42
2016-02-14T17:23:53.726Z,52.61
2016-02-14T17:24:53.807Z,52.61
2016-02-14T17:25:53.715Z,52.7
2016-02-14T17:26:53.780Z,52.51
2016-02-14T17:27:53.768Z,52.51
2016-02-14T17:28:53.943Z,52.51
2016-02-14T17:29:53.695Z,52.61
2016-02-14T17:30:53.681Z,52.7
2016-02-14T17:31:53.685Z,52.61
2016-02-14T17:32:53.718Z,52.61
2016-02-14T17:33:53.721Z,52.51
2016-02-14T17:34:53.926Z,52.61
2016-02-14T17:35:57.680Z,52.51
2016-02-14T17:36:53.651Z,52.61
2016-02-14T17:37:53.684Z,52.42
2016-02-14T17:38:53.704Z,52.39
2016-02-14T17:39:53.706Z,52.48
2016-02-14T17:40:53.661Z,52.48
2016-02-14T17:41:53.618Z,52.51
2016-02-14T17:42:53.620Z,52.42
2016-02-14T17:43:53.608Z,52.42
2016-02-14T17:44:53.641Z,52.29
2016-02-14T17:45:53.597Z,52.42
2016-02-14T17:46:53.741Z,52.22
2016-02-14T17:47:53.165Z,52.22
2016-02-14T17:48:53.574Z,52.32
2016-02-14T17:49:53.577Z,52.32
2016-02-14T17:50:53.564Z,52.32
2016-02-14T17:51:53.551Z,52.22
2016-02-14T17:54:05.043Z,52.61
2016-02-14T17:55:05.030Z,52.42
2016-02-14T17:56:05.018Z,51.93
2016-02-14T17:57:05.317Z,51.64
2016-02-14T17:58:05.210Z,51.35
2016-02-14T17:59:05.010Z,51.45
2016-02-14T18:00:04.996Z,51.53
2016-02-14T18:01:05.078Z,51.53
2016-02-14T18:02:04.846Z,51.91
2016-02-14T18:03:05.068Z,52
2016-02-14T18:04:04.992Z,52
2016-02-14T18:05:05.151Z,52.1
2016-02-14T18:06:04.982Z,52.58
2016-02-14T18:07:04.953Z,52.77
2016-02-14T18:08:04.940Z,52.94
2016-02-14T18:09:04.943Z,52.75
2016-02-14T18:10:04.977Z,52.46
2016-02-14T18:11:05.120Z,52.08
2016-02-14T18:12:05.092Z,51.72
2016-02-14T18:13:05.298Z,51.53
2016-02-14T18:14:04.909Z,51.43
2016-02-14T18:15:04.911Z,51.23
2016-02-14T18:16:04.900Z,51.53
2016-02-14T18:17:04.917Z,51.53
2016-02-14T18:18:04.935Z,51.43
2016-02-14T18:19:04.720Z,51.43
2016-02-14T18:20:04.879Z,51.14
2016-02-14T18:21:04.866Z,51.23
2016-02-14T18:22:04.869Z,51.14
2016-02-14T18:23:04.872Z,50.85
2016-02-14T18:24:04.843Z,50.95
2016-02-14T18:25:04.861Z,50.85
2016-02-14T18:26:04.849Z,50.66
2016-02-14T18:27:04.851Z,50.85
2016-02-14T18:28:04.822Z,50.76
